createdAt,value
2019-02-26T00:00:26.179Z,6.73
2019-02-26T00:02:53.502Z,6.71
2019-02-26T00:05:22.040Z,6.66
2019-02-26T00:07:51.142Z,6.65
2019-02-26T00:10:22.283Z,6.62
2019-02-26T00:12:46.164Z,6.61
2019-02-26T00:15:12.790Z,6.59
2019-02-26T00:17:41.195Z,6.59
2019-02-26T00:20:08.465Z,6.57
2019-02-26T00:22:36.726Z,6.57
2019-02-26T00:25:06.263Z,6.58
2019-02-26T00:27:34.657Z,6.58
2019-02-26T00:30:00.974Z,6.59
2019-02-26T00:32:27.545Z,6.58
2019-02-26T00:34:55.833Z,6.57
2019-02-26T00:37:24.225Z,6.56
2019-02-26T00:39:51.766Z,6.56
2019-02-26T00:42:21.536Z,6.54
2019-02-26T00:44:51.352Z,6.52
2019-02-26T00:47:15.712Z,6.53
2019-02-26T00:49:44.075Z,6.53
2019-02-26T00:52:11.614Z,6.52
2019-02-26T00:54:38.928Z,6.53
2019-02-26T00:57:06.458Z,6.52
2019-02-26T01:02:01.944Z,6.52
2019-02-26T01:04:28.520Z,6.53
2019-02-26T01:06:56.754Z,6.54
2019-02-26T01:09:25.116Z,6.54
2019-02-26T01:11:52.357Z,6.54
2019-02-26T01:14:20.408Z,6.55
2019-02-26T01:16:48.377Z,6.55
2019-02-26T01:19:15.782Z,6.54
2019-02-26T01:21:43.288Z,6.55
2019-02-26T01:24:09.867Z,6.56
2019-02-26T01:26:36.447Z,6.57
2019-02-26T01:29:03.015Z,6.56
2019-02-26T01:31:31.553Z,6.57
2019-02-26T01:33:57.910Z,6.55
2019-02-26T01:36:25.421Z,6.56
2019-02-26T01:38:53.159Z,6.55
2019-02-26T01:41:21.002Z,6.56
2019-02-26T01:43:48.229Z,6.55
2019-02-26T01:46:16.959Z,6.58
2019-02-26T01:48:43.121Z,6.56
2019-02-26T01:51:09.691Z,6.57
2019-02-26T01:53:36.271Z,6.57
2019-02-26T01:56:05.106Z,6.57
2019-02-26T01:58:33.442Z,6.57
2019-02-26T02:00:59.452Z,6.56
2019-02-26T02:03:27.828Z,6.54
2019-02-26T02:05:54.861Z,6.53
2019-02-26T02:08:24.378Z,6.53
2019-02-26T02:10:53.658Z,6.52
2019-02-26T02:13:18.098Z,6.51
2019-02-26T02:15:46.468Z,6.51
2019-02-26T02:18:13.172Z,6.52
2019-02-26T02:20:39.781Z,6.55
2019-02-26T02:23:07.098Z,6.57
2019-02-26T02:25:36.122Z,6.59
2019-02-26T02:28:04.407Z,6.62
2019-02-26T02:30:31.774Z,6.62
2019-02-26T02:33:00.109Z,6.65
2019-02-26T02:35:27.113Z,6.67
2019-02-26T02:37:56.255Z,6.71
2019-02-26T02:40:22.000Z,6.73
2019-02-26T02:42:49.257Z,6.73
2019-02-26T02:45:19.611Z,6.75
2019-02-26T02:47:44.539Z,6.75
2019-02-26T02:50:12.641Z,6.77
2019-02-26T02:52:39.449Z,6.80
2019-02-26T02:55:06.974Z,6.80
2019-02-26T02:57:34.489Z,6.82
2019-02-26T03:00:02.920Z,6.84
2019-02-26T03:02:30.742Z,6.85
2019-02-26T03:04:57.352Z,6.89
2019-02-26T03:07:26.740Z,6.88
2019-02-26T03:09:52.259Z,6.92
2019-02-26T03:12:18.852Z,6.93
2019-02-26T03:14:45.435Z,6.95
2019-02-26T03:17:14.775Z,6.95
2019-02-26T03:19:41.574Z,6.95
2019-02-26T03:22:09.788Z,6.97
2019-02-26T03:24:37.005Z,7.00
2019-02-26T03:27:03.620Z,7.02
2019-02-26T03:29:30.194Z,7.05
2019-02-26T03:31:56.805Z,7.07
2019-02-26T03:34:25.330Z,7.08
2019-02-26T03:36:51.777Z,7.08
2019-02-26T03:39:18.354Z,7.10
2019-02-26T03:41:46.048Z,7.12
2019-02-26T03:44:13.248Z,7.12
2019-02-26T03:46:39.864Z,7.11
2019-02-26T03:49:06.442Z,7.11
2019-02-26T03:51:33.051Z,7.13
2019-02-26T03:53:59.629Z,7.14
2019-02-26T03:56:26.239Z,7.15
2019-02-26T03:58:57.019Z,7.17
2019-02-26T04:01:21.638Z,7.18
2019-02-26T04:03:48.307Z,7.17
2019-02-26T04:06:14.917Z,7.17
2019-02-26T04:08:42.337Z,7.14
2019-02-26T04:11:09.795Z,7.14
2019-02-26T04:13:36.368Z,7.14
2019-02-26T04:16:04.564Z,7.15
2019-02-26T04:18:34.199Z,7.13
2019-02-26T04:21:03.234Z,7.11
2019-02-26T04:23:28.013Z,7.12
2019-02-26T04:25:56.869Z,7.09
2019-02-26T04:28:27.377Z,7.07
2019-02-26T04:30:52.445Z,7.10
2019-02-26T04:33:19.280Z,7.07
2019-02-26T04:35:47.884Z,7.08
2019-02-26T04:38:14.274Z,7.06
2019-02-26T04:40:41.082Z,7.06
2019-02-26T04:43:10.135Z,7.04
2019-02-26T04:45:36.041Z,7.05
2019-02-26T04:48:02.649Z,7.04
2019-02-26T04:50:32.382Z,7.06
2019-02-26T04:53:01.503Z,7.10
2019-02-26T04:55:29.027Z,7.11
2019-02-26T04:57:54.243Z,7.12
2019-02-26T05:00:20.894Z,7.12
2019-02-26T05:02:47.466Z,7.14
2019-02-26T05:05:14.049Z,7.14
2019-02-26T05:07:42.300Z,7.14
2019-02-26T05:10:08.915Z,7.13
2019-02-26T05:12:37.864Z,7.12
2019-02-26T05:15:03.806Z,7.13
2019-02-26T05:17:33.163Z,7.12
2019-02-26T05:19:58.682Z,7.11
2019-02-26T05:22:27.650Z,7.11
2019-02-26T05:24:53.568Z,7.11
2019-02-26T05:27:22.706Z,7.11
2019-02-26T05:29:49.635Z,7.13
2019-02-26T05:32:16.747Z,7.13
2019-02-26T05:34:45.961Z,7.11
2019-02-26T05:37:13.802Z,7.10
2019-02-26T05:39:40.650Z,7.08
2019-02-26T05:42:08.230Z,7.08
2019-02-26T05:44:34.818Z,7.07
2019-02-26T05:47:01.790Z,7.08
2019-02-26T05:49:28.504Z,7.07
2019-02-26T05:51:56.855Z,7.07
2019-02-26T05:54:24.499Z,7.08
2019-02-26T05:56:51.227Z,7.09
2019-02-26T05:59:18.698Z,7.07
2019-02-26T06:01:47.461Z,7.07
2019-02-26T06:04:15.574Z,7.10
2019-02-26T06:06:42.809Z,7.13
2019-02-26T06:09:09.418Z,7.15
2019-02-26T06:11:38.634Z,7.18
2019-02-26T06:14:09.092Z,7.21
2019-02-26T06:16:32.637Z,7.24
2019-02-26T06:18:59.258Z,7.26
2019-02-26T06:21:26.180Z,7.30
2019-02-26T06:23:52.801Z,7.31
2019-02-26T06:26:19.417Z,7.33
2019-02-26T06:28:48.041Z,7.38
2019-02-26T06:31:16.654Z,7.40
2019-02-26T06:33:43.659Z,7.43
2019-02-26T06:36:10.948Z,7.47
2019-02-26T06:38:37.522Z,7.52
2019-02-26T06:41:04.102Z,7.58
2019-02-26T06:43:30.998Z,7.63
2019-02-26T06:45:57.646Z,7.69
2019-02-26T06:48:26.793Z,7.72
2019-02-26T06:50:52.520Z,7.74
2019-02-26T06:53:21.521Z,7.77
2019-02-26T06:55:47.483Z,7.76
2019-02-26T06:58:14.051Z,7.79
2019-02-26T07:00:41.475Z,7.83
2019-02-26T07:03:08.593Z,7.83
2019-02-26T07:05:35.165Z,7.87
2019-02-26T07:08:02.630Z,7.92
2019-02-26T07:10:31.367Z,7.98
2019-02-26T07:12:58.365Z,8.03
2019-02-26T07:15:28.757Z,8.07
2019-02-26T07:17:53.255Z,8.10
2019-02-26T07:20:19.834Z,8.12
2019-02-26T07:22:48.619Z,8.13
2019-02-26T07:25:16.632Z,8.12
2019-02-26T07:27:43.013Z,8.13
2019-02-26T07:30:09.588Z,8.15
2019-02-26T07:32:38.244Z,8.20
2019-02-26T07:35:06.385Z,8.26
2019-02-26T07:37:34.035Z,8.30
2019-02-26T07:40:03.235Z,8.30
2019-02-26T07:42:32.761Z,8.31
2019-02-26T07:44:57.742Z,8.28
2019-02-26T07:47:24.786Z,8.31
2019-02-26T07:49:56.520Z,8.38
2019-02-26T07:52:21.578Z,8.43
2019-02-26T07:54:50.143Z,8.52
2019-02-26T07:57:18.247Z,8.58
2019-02-26T07:59:47.681Z,8.65
2019-02-26T08:02:14.240Z,8.74
2019-02-26T08:04:41.841Z,8.84
2019-02-26T08:07:09.128Z,8.93
2019-02-26T08:09:35.723Z,8.99
2019-02-26T08:12:04.248Z,9.07
2019-02-26T08:14:30.593Z,9.14
2019-02-26T08:16:59.557Z,9.22
2019-02-26T08:19:29.446Z,9.23
2019-02-26T08:21:54.946Z,9.25
2019-02-26T08:24:24.495Z,9.30
2019-02-26T08:26:52.742Z,9.30
2019-02-26T08:29:21.093Z,9.36
2019-02-26T08:31:49.512Z,9.42
2019-02-26T08:34:15.975Z,9.46
2019-02-26T08:36:46.184Z,9.57
2019-02-26T08:39:14.943Z,9.67
2019-02-26T08:41:39.239Z,9.74
2019-02-26T08:44:05.827Z,9.85
2019-02-26T08:46:32.431Z,9.96
2019-02-26T08:49:07.859Z,10.05
2019-02-26T08:51:27.378Z,10.14
2019-02-26T08:53:55.277Z,10.28
2019-02-26T08:56:23.922Z,10.44
2019-02-26T08:58:50.590Z,10.58
2019-02-26T09:01:17.191Z,10.74
2019-02-26T09:03:43.787Z,10.90
2019-02-26T09:06:13.887Z,11.11
2019-02-26T09:08:43.016Z,11.27
2019-02-26T09:11:10.712Z,11.47
2019-02-26T09:13:38.868Z,11.66
2019-02-26T09:16:07.850Z,11.90
2019-02-26T09:18:37.485Z,12.17
2019-02-26T09:21:02.311Z,12.41
2019-02-26T09:23:30.546Z,12.63
2019-02-26T09:25:59.635Z,12.80
2019-02-26T09:28:27.162Z,12.94
2019-02-26T09:30:56.409Z,13.08
2019-02-26T09:33:25.057Z,13.18
2019-02-26T09:35:52.145Z,13.23
2019-02-26T09:38:20.776Z,13.32
2019-02-26T09:40:48.105Z,13.36
2019-02-26T09:43:17.281Z,13.41
2019-02-26T09:45:45.734Z,13.47
2019-02-26T09:48:12.963Z,13.52
2019-02-26T09:50:41.564Z,13.60
2019-02-26T09:53:08.725Z,13.70
2019-02-26T09:55:35.301Z,13.80
2019-02-26T09:58:02.641Z,13.86
2019-02-26T10:00:29.731Z,13.83
2019-02-26T10:02:56.399Z,13.77
2019-02-26T10:05:22.979Z,13.76
2019-02-26T10:07:52.308Z,13.82
2019-02-26T10:10:17.872Z,13.99
2019-02-26T10:12:44.443Z,14.19
2019-02-26T10:15:11.016Z,14.41
2019-02-26T10:17:40.024Z,14.64
2019-02-26T10:20:08.623Z,14.80
2019-02-26T10:22:36.307Z,14.85
2019-02-26T10:25:02.527Z,14.90
2019-02-26T10:27:33.607Z,15.03
2019-02-26T10:29:57.426Z,15.29
2019-02-26T10:32:24.246Z,15.65
2019-02-26T10:34:52.329Z,16.09
2019-02-26T10:37:18.944Z,16.53
2019-02-26T10:39:47.929Z,16.97
2019-02-26T10:42:13.867Z,17.39
2019-02-26T10:44:42.078Z,17.71
2019-02-26T10:47:10.560Z,18.06
2019-02-26T10:49:37.057Z,18.48
2019-02-26T10:52:03.730Z,18.78
2019-02-26T10:54:34.612Z,18.70
2019-02-26T10:57:00.470Z,18.76
2019-02-26T10:59:26.942Z,18.72
2019-02-26T11:01:55.311Z,18.88
2019-02-26T11:04:21.870Z,18.99
2019-02-26T11:06:48.489Z,19.32
2019-02-26T11:09:18.328Z,19.54
2019-02-26T11:11:43.394Z,19.68
2019-02-26T11:14:10.674Z,19.84
2019-02-26T11:16:39.055Z,20.19
2019-02-26T11:19:07.520Z,20.68
2019-02-26T11:21:34.157Z,21.21
2019-02-26T11:24:03.055Z,21.61
2019-02-26T11:26:30.088Z,21.86
2019-02-26T11:28:57.425Z,22.02
2019-02-26T11:31:25.460Z,21.72
2019-02-26T11:33:52.339Z,21.54
2019-02-26T11:36:18.903Z,21.18
2019-02-26T11:38:47.091Z,20.81
2019-02-26T11:41:13.856Z,20.45
2019-02-26T11:43:40.435Z,20.22
2019-02-26T11:46:08.736Z,19.97
2019-02-26T11:48:35.485Z,19.66
2019-02-26T11:51:02.070Z,19.41
2019-02-26T11:53:29.882Z,19.25
2019-02-26T11:55:59.151Z,19.14
2019-02-26T11:58:26.914Z,18.86
2019-02-26T12:00:53.679Z,18.56
2019-02-26T12:03:22.840Z,18.17
2019-02-26T12:08:34.021Z,17.58
2019-02-26T12:13:28.897Z,17.30
2019-02-26T12:15:55.473Z,17.28
2019-02-26T12:18:22.468Z,17.37
2019-02-26T12:20:49.210Z,17.51
2019-02-26T12:23:16.908Z,17.61
2019-02-26T12:25:44.074Z,17.60
2019-02-26T12:28:11.564Z,17.67
2019-02-26T12:30:41.458Z,17.56
2019-02-26T12:33:09.824Z,17.69
2019-02-26T12:35:36.207Z,17.86
2019-02-26T12:38:17.397Z,18.07
2019-02-26T12:40:32.321Z,18.19
2019-02-26T12:43:01.825Z,18.39
2019-02-26T12:45:28.553Z,18.51
2019-02-26T12:47:55.603Z,18.77
2019-02-26T12:50:23.803Z,19.00
2019-02-26T12:52:51.574Z,19.24
2019-02-26T12:55:18.815Z,19.39
2019-02-26T12:57:47.259Z,19.87
2019-02-26T13:00:16.338Z,20.41
2019-02-26T13:02:43.331Z,21.31
2019-02-26T13:05:13.408Z,23.04
2019-02-26T13:07:38.693Z,25.42
2019-02-26T13:10:05.265Z,27.68
2019-02-26T13:12:32.534Z,28.77
2019-02-26T13:15:03.184Z,28.62
2019-02-26T13:17:31.549Z,28.61
2019-02-26T13:19:58.960Z,29.52
2019-02-26T13:22:24.219Z,31.10
2019-02-26T13:24:50.792Z,32.16
2019-02-26T13:27:17.805Z,33.03
2019-02-26T13:29:53.166Z,32.36
2019-02-26T13:32:16.864Z,31.41
2019-02-26T13:34:41.027Z,30.55
2019-02-26T13:37:07.603Z,30.08
2019-02-26T13:39:38.557Z,29.68
2019-02-26T13:42:05.542Z,29.70
2019-02-26T13:44:30.798Z,30.97
2019-02-26T13:46:57.372Z,32.52
2019-02-26T13:49:23.970Z,33.08
2019-02-26T13:51:50.556Z,32.67
2019-02-26T13:54:17.167Z,33.50
2019-02-26T13:56:43.799Z,34.84
2019-02-26T13:59:10.518Z,36.04
2019-02-26T14:01:37.172Z,36.74
2019-02-26T14:04:03.783Z,37.16
2019-02-26T14:06:30.343Z,37.85
2019-02-26T14:08:57.062Z,38.34
2019-02-26T14:11:23.660Z,36.59
2019-02-26T14:13:50.259Z,34.46
2019-02-26T14:16:16.842Z,34.23
2019-02-26T14:18:43.429Z,33.18
2019-02-26T14:21:10.389Z,31.25
2019-02-26T14:23:37.008Z,29.30
2019-02-26T14:26:03.608Z,28.02
2019-02-26T14:28:30.209Z,26.54
2019-02-26T14:30:56.785Z,25.25
2019-02-26T14:33:23.383Z,24.03
2019-02-26T14:35:50.239Z,22.99
2019-02-26T14:38:16.811Z,22.06
2019-02-26T14:40:43.403Z,21.22
2019-02-26T14:43:09.995Z,21.21
2019-02-26T14:45:36.572Z,21.41
2019-02-26T14:48:03.147Z,21.08
2019-02-26T14:50:29.712Z,21.10
2019-02-26T14:52:56.292Z,20.70
2019-02-26T14:55:22.882Z,20.20
2019-02-26T14:57:49.531Z,19.68
2019-02-26T15:00:16.235Z,19.13
2019-02-26T15:02:42.811Z,18.61
2019-02-26T15:05:09.401Z,18.17
2019-02-26T15:07:35.980Z,17.71
2019-02-26T15:10:02.612Z,17.32
2019-02-26T15:12:29.173Z,17.06
2019-02-26T15:14:55.785Z,16.86
2019-02-26T15:17:24.499Z,16.75
2019-02-26T15:19:53.221Z,16.49
2019-02-26T15:22:19.384Z,16.43
2019-02-26T15:24:45.999Z,16.30
2019-02-26T15:27:12.564Z,16.37
2019-02-26T15:29:39.162Z,16.28
2019-02-26T15:32:05.735Z,16.12
2019-02-26T15:34:32.347Z,15.95
2019-02-26T15:36:58.919Z,15.77
2019-02-26T15:39:25.633Z,15.69
2019-02-26T15:41:52.223Z,15.66
2019-02-26T15:44:18.809Z,15.49
2019-02-26T15:46:45.394Z,15.26
2019-02-26T15:49:12.166Z,15.02
2019-02-26T15:51:38.731Z,14.77
2019-02-26T15:54:05.367Z,14.53
2019-02-26T15:56:31.959Z,14.28
2019-02-26T15:58:58.635Z,14.04
2019-02-26T16:01:25.216Z,13.84
2019-02-26T16:03:51.802Z,13.64
2019-02-26T16:06:18.381Z,13.49
2019-02-26T16:08:44.956Z,13.35
2019-02-26T16:11:13.160Z,13.23
2019-02-26T16:13:40.004Z,13.12
2019-02-26T16:16:06.593Z,13.01
2019-02-26T16:18:33.164Z,12.91
2019-02-26T16:20:59.742Z,12.80
2019-02-26T16:23:26.316Z,12.67
2019-02-26T16:25:52.889Z,12.56
2019-02-26T16:28:19.703Z,12.46
2019-02-26T16:30:46.256Z,12.37
2019-02-26T16:33:13.678Z,12.27
2019-02-26T16:35:40.990Z,12.20
2019-02-26T16:38:07.579Z,12.10
2019-02-26T16:40:34.158Z,12.00
2019-02-26T16:43:01.112Z,11.89
2019-02-26T16:45:27.692Z,11.77
2019-02-26T16:47:54.273Z,11.69
2019-02-26T16:50:20.883Z,11.58
2019-02-26T16:52:47.465Z,11.48
2019-02-26T16:55:17.115Z,11.36
2019-02-26T16:57:43.325Z,11.27
2019-02-26T17:00:09.939Z,11.18
2019-02-26T17:02:36.675Z,11.11
2019-02-26T17:05:03.329Z,11.03
2019-02-26T17:07:29.910Z,10.94
2019-02-26T17:09:56.536Z,10.86
2019-02-26T17:12:23.270Z,10.78
2019-02-26T17:14:50.692Z,10.70
2019-02-26T17:17:17.850Z,10.61
2019-02-26T17:19:48.340Z,10.53
2019-02-26T17:22:12.755Z,10.47
2019-02-26T17:24:39.374Z,10.39
2019-02-26T17:27:06.493Z,10.34
2019-02-26T17:29:33.352Z,10.27
2019-02-26T17:32:03.984Z,10.22
2019-02-26T17:34:28.224Z,10.15
2019-02-26T17:36:54.809Z,10.08
2019-02-26T17:39:23.698Z,10.03
2019-02-26T17:41:49.695Z,10.00
2019-02-26T17:44:16.282Z,9.99
2019-02-26T17:46:42.868Z,9.98
2019-02-26T17:49:09.439Z,10.00
2019-02-26T17:51:36.019Z,10.02
2019-02-26T17:54:04.017Z,10.01
2019-02-26T17:56:30.924Z,10.01
2019-02-26T17:58:57.503Z,10.03
2019-02-26T18:01:24.077Z,10.04
2019-02-26T18:03:50.663Z,10.06
2019-02-26T18:06:17.257Z,10.05
2019-02-26T18:08:45.909Z,10.06
2019-02-26T18:11:12.560Z,10.05
2019-02-26T18:13:39.135Z,10.04
2019-02-26T18:16:09.242Z,10.03
2019-02-26T18:18:34.390Z,10.01
2019-02-26T18:21:05.635Z,9.98
2019-02-26T18:23:29.960Z,9.93
2019-02-26T18:25:56.543Z,9.84
2019-02-26T18:28:23.120Z,9.77
2019-02-26T18:30:49.693Z,9.69
2019-02-26T18:33:16.270Z,9.62
2019-02-26T18:35:42.843Z,9.58
2019-02-26T18:38:09.421Z,9.56
2019-02-26T18:40:35.990Z,9.56
2019-02-26T18:43:02.566Z,9.55
2019-02-26T18:45:29.221Z,9.56
2019-02-26T18:47:55.787Z,9.54
2019-02-26T18:50:22.392Z,9.53
2019-02-26T18:52:48.962Z,9.50
2019-02-26T18:55:15.581Z,9.49
2019-02-26T18:57:43.696Z,9.48
2019-02-26T19:00:10.486Z,9.48
2019-02-26T19:02:37.065Z,9.48
2019-02-26T19:05:03.674Z,9.47
2019-02-26T19:07:33.141Z,9.47
2019-02-26T19:09:58.569Z,9.46
2019-02-26T19:12:25.184Z,9.45
2019-02-26T19:14:51.779Z,9.43
2019-02-26T19:17:18.359Z,9.43
2019-02-26T19:19:44.931Z,9.41
2019-02-26T19:22:11.522Z,9.42
2019-02-26T19:24:38.105Z,9.43
2019-02-26T19:27:04.763Z,9.44
2019-02-26T19:29:32.033Z,9.41
2019-02-26T19:31:58.833Z,9.38
2019-02-26T19:34:30.224Z,9.36
2019-02-26T19:36:56.950Z,9.34
2019-02-26T19:39:23.538Z,9.30
2019-02-26T19:41:50.142Z,9.28
2019-02-26T19:44:16.722Z,9.25
2019-02-26T19:46:43.326Z,9.22
2019-02-26T19:49:09.925Z,9.17
2019-02-26T19:51:36.526Z,9.14
2019-02-26T19:54:04.727Z,9.11
2019-02-26T19:56:31.460Z,9.10
2019-02-26T19:58:58.043Z,9.08
2019-02-26T20:03:56.384Z,9.02
2019-02-26T20:06:23.571Z,9.02
2019-02-26T20:08:51.321Z,8.98
2019-02-26T20:11:22.579Z,8.94
2019-02-26T20:13:47.589Z,8.92
2019-02-26T20:16:14.201Z,8.91
2019-02-26T20:18:41.015Z,8.89
2019-02-26T20:21:07.900Z,8.85
2019-02-26T20:23:34.477Z,8.83
2019-02-26T20:26:01.106Z,8.81
2019-02-26T20:28:27.683Z,8.81
2019-02-26T20:30:54.278Z,8.80
2019-02-26T20:33:20.857Z,8.81
2019-02-26T20:35:47.436Z,8.78
2019-02-26T20:38:14.023Z,8.77
2019-02-26T20:40:40.597Z,8.73
2019-02-26T20:43:07.170Z,8.69
2019-02-26T20:45:33.879Z,8.67
2019-02-26T20:48:03.913Z,8.64
2019-02-26T20:50:28.761Z,8.61
2019-02-26T20:52:55.372Z,8.60
2019-02-26T20:55:22.222Z,8.56
2019-02-26T20:57:48.791Z,8.53
2019-02-26T21:00:15.368Z,8.49
2019-02-26T21:02:41.963Z,8.46
2019-02-26T21:05:08.542Z,8.43
2019-02-26T21:07:35.423Z,8.42
2019-02-26T21:10:04.033Z,8.41
2019-02-26T21:12:30.336Z,8.38
2019-02-26T21:14:56.913Z,8.36
2019-02-26T21:17:25.576Z,8.35
2019-02-26T21:19:51.839Z,8.35
2019-02-26T21:22:19.737Z,8.36
2019-02-26T21:24:47.532Z,8.34
2019-02-26T21:27:14.254Z,8.34
2019-02-26T21:29:41.635Z,8.33
2019-02-26T21:32:08.334Z,8.32
2019-02-26T21:34:34.912Z,8.30
2019-02-26T21:37:01.557Z,8.28
2019-02-26T21:39:28.124Z,8.24
2019-02-26T21:41:56.372Z,8.21
2019-02-26T21:44:23.092Z,8.20
2019-02-26T21:46:49.792Z,8.19
2019-02-26T21:49:16.362Z,8.19
2019-02-26T21:51:42.962Z,8.18
2019-02-26T21:54:09.647Z,8.17
2019-02-26T21:56:36.267Z,8.17
2019-02-26T21:59:02.839Z,8.17
2019-02-26T22:01:29.443Z,8.15
2019-02-26T22:03:58.482Z,8.15
2019-02-26T22:06:24.436Z,8.15
2019-02-26T22:08:51.022Z,8.15
2019-02-26T22:11:18.491Z,8.15
2019-02-26T22:13:45.854Z,8.15
2019-02-26T22:16:14.945Z,8.16
2019-02-26T22:18:40.734Z,8.16
2019-02-26T22:21:07.307Z,8.16
2019-02-26T22:23:34.823Z,8.14
2019-02-26T22:26:01.446Z,8.13
2019-02-26T22:28:28.009Z,8.12
2019-02-26T22:30:55.946Z,8.10
2019-02-26T22:33:23.048Z,8.12
2019-02-26T22:35:49.619Z,8.10
2019-02-26T22:38:16.193Z,8.10
2019-02-26T22:40:42.799Z,8.09
2019-02-26T22:43:13.432Z,8.09
2019-02-26T22:45:37.659Z,8.08
2019-02-26T22:48:04.243Z,8.08
2019-02-26T22:50:30.818Z,8.06
2019-02-26T22:52:57.737Z,8.04
2019-02-26T22:55:24.444Z,8.03
2019-02-26T22:57:51.018Z,8.04
2019-02-26T23:00:17.588Z,8.03
2019-02-26T23:02:44.187Z,8.03
2019-02-26T23:05:10.759Z,8.01
2019-02-26T23:07:39.467Z,7.99
2019-02-26T23:10:05.664Z,7.97
2019-02-26T23:12:32.285Z,7.98
2019-02-26T23:14:58.858Z,7.99
2019-02-26T23:17:25.463Z,7.99
2019-02-26T23:19:52.041Z,8.00
2019-02-26T23:22:22.980Z,8.00
2019-02-26T23:24:46.935Z,7.97
2019-02-26T23:27:15.117Z,7.95
2019-02-26T23:29:41.842Z,7.93
2019-02-26T23:32:08.443Z,7.92
2019-02-26T23:34:35.006Z,7.90
2019-02-26T23:37:01.621Z,7.89
2019-02-26T23:39:28.205Z,7.88
2019-02-26T23:41:54.775Z,7.87
2019-02-26T23:44:21.368Z,7.85
2019-02-26T23:46:47.944Z,7.83
2019-02-26T23:49:14.930Z,7.84
2019-02-26T23:51:41.556Z,7.83
2019-02-26T23:54:08.184Z,7.83
2019-02-26T23:56:34.753Z,7.83
2019-02-26T23:59:01.706Z,7.81
